Aérodrome :
LOGIN :

S'inscrire | Disclaimer

   EN    FR    IT 

 










Légende :    VFR   VFR Marginal   IFR   IFR Intensif   IFR Très Intensif
Visi : 
Plafond : 
>= 8 km
>= 3000ft
5 à 8 km
1000 à 3000 ft
1500m à 5 km
500 à 1000 ft
800 à 1500m
200 à 500 ft
< 800m
< 200 ft
Symboles :   Orages  Brouillard  Fortes neiges  Fortes précipitations  Vent > 20 kt
SIGMETs :   Divers  Orages  Givrage  Turbulence  Onde Orograph.  Cendres Volcan.






- Altitude de l'aérodrome : 325 ft
- Code IATA : BES


LFRB - Brest

DERNIER METAR :
  • 031730Z AUTO 30008KT 270V330 9999 -RADZ BKN015/// OVC021/// ///TCU 05/04 Q0981 TEMPO 31020G45KT 4000 SHRA BKN015CB

METARs EXPIRÉS :
  • 031700Z AUTO 32012KT 9999 -RA SCT009/// BKN015/// BKN022/// ///CB 05/04 Q0981 TEMPO 31020G45KT 4000 SHRA
  • 031630Z AUTO 32013KT 6000 RA BKN008/// BKN021/// BKN032/// ///CB 06/05 Q0981 TEMPO 31020G45KT 4000 SHRA BKN015CB
  • 031600Z AUTO 30008KT 270V350 4500 RA BR FEW012/// OVC035/// ///CB 06/04 Q0981 TEMPO 31020G45KT TSRAGS BKN013 BKN020CB
  • 031530Z AUTO 28012KT 240V300 4300 1800 +RA BR BKN014/// BKN020/// BKN030/// ///CB 07/06 Q0982 TEMPO 31020G45KT TSRAGS BKN015CB
  • 031500Z AUTO 23012KT 9999 -RA FEW010/// BKN016/// BKN023/// ///CB 08/06 Q0982 TEMPO 24015G30KT 3000 RA BKN013 BKN020CB

TAF TAF LFRB
Valide du 03 à 18h jusqu'au 05 à 00h UTC


031700Z 0318/0424 31015KT 9999 BKN030
TEMPO 0318/0321 31015G30KT 3000 RA BKN010 BKN020CB
PROB40
TEMPO 0318/0321 31025G45KT
TEMPO 0321/0424 4000 SHRA BKN040CB
PROB30
TEMPO 0321/0416 31015G30KT 2000 TSRAGS BKN015CB
BECMG 0416/0418 25015KT
BECMG 0420/0422 19008KT
ATIS : +33 2 98 32 02 71



MET'MAP, la Météo Aéronautique d'un coup d'oeil ! - Copyright ORBIFLY Décembre 2007 - Disclaimer

ORBIFLY MET'MAP TEAM :

Programmation & Développement : Alexandra Zaïnal
Sur une idée originale de : Baudouin d'Aumeries
Assistance à la programmation : Marc-Olivier Méhu
Soutien technique & logistique : Manuel Goepfert

Contact : metmap@orbifly.com




SOURCES & CREDITS :

   NOAA